Time;durP1;ratioP1;P1;durP2;ratioP2;P2;SDS_P1;SDS_P2;PMS_P1;PMS_P2;Temp;Humidity;BMP_temperature;BMP_pressure;BME280_temperature;BME280_humidity;BME280_pressure;Samples;Min_cycle;Max_cycle;Signal;HPM_P1;HPM_P2
2022/09/08 00:00:31;;;;;;;11.52;3.33;;;;;;;17.92;86.23;100826.13;5111394;28;20418;-79
2022/09/08 00:03:00;;;;;;;11.52;3.38;;;;;;;17.87;86.89;100823.09;5110429;28;20032;-79
2022/09/08 00:05:27;;;;;;;8.45;3.45;;;;;;;17.84;87.56;100826.94;5109645;28;20530;-80
2022/09/08 00:07:55;;;;;;;16.65;4.18;;;;;;;17.77;89.48;100831.22;5108330;28;20020;-79
2022/09/08 00:10:20;;;;;;;11.68;3.88;;;;;;;17.73;89.44;100834.38;5094223;28;20110;-79
2022/09/08 00:12:47;;;;;;;11.55;4.07;;;;;;;17.70;89.86;100832.03;5108104;28;20502;-81
2022/09/08 00:15:13;;;;;;;10.02;3.45;;;;;;;17.67;89.83;100829.69;5103412;28;20031;-81
2022/09/08 00:17:39;;;;;;;9.82;3.30;;;;;;;17.66;90.37;100841.31;5111206;28;20020;-79
2022/09/08 00:20:06;;;;;;;13.55;3.72;;;;;;;17.65;90.84;100829.00;5110300;28;20469;-79
2022/09/08 00:22:31;;;;;;;10.82;3.80;;;;;;;17.65;91.06;100824.50;5110146;28;20058;-78
2022/09/08 00:24:57;;;;;;;10.32;3.60;;;;;;;17.67;91.32;100817.22;5110303;28;20055;-78
2022/09/08 00:27:22;;;;;;;10.43;3.85;;;;;;;17.62;92.79;100808.84;5110963;28;20089;-80
2022/09/08 00:29:47;;;;;;;11.27;3.60;;;;;;;17.62;91.92;100798.22;5106726;28;20023;-80
2022/09/08 00:32:13;;;;;;;10.85;3.63;;;;;;;17.62;93.29;100792.06;5096193;28;20034;-78
2022/09/08 00:34:38;;;;;;;11.05;3.72;;;;;;;17.63;93.73;100793.72;5110274;28;20022;-78
2022/09/08 00:37:03;;;;;;;9.77;3.80;;;;;;;17.52;92.97;100797.47;5101617;28;20119;-78
2022/09/08 00:39:29;;;;;;;9.38;3.75;;;;;;;17.48;94.82;100799.63;5108903;28;20041;-78
2022/09/08 00:41:55;;;;;;;14.00;3.70;;;;;;;17.52;95.44;100798.31;5109439;28;20047;-78
2022/09/08 00:44:53;;;;;;;8.93;3.80;;;;;;;17.57;93.15;100799.66;5106854;27;20132;-78
2022/09/08 00:47:24;;;;;;;12.77;3.97;;;;;;;17.50;94.87;100799.47;5059129;28;20044;-78
2022/09/08 00:50:01;;;;;;;9.43;3.55;;;;;;;17.49;96.22;100785.34;5096765;28;20031;-78
2022/09/08 00:52:30;;;;;;;10.50;3.50;;;;;;;17.45;96.91;100789.31;5110172;28;20043;-76
2022/09/08 00:54:55;;;;;;;11.23;3.70;;;;;;;17.45;96.36;100778.66;5109590;28;20034;-79
2022/09/08 00:57:23;;;;;;;9.90;3.30;;;;;;;17.40;96.11;100778.31;5108905;28;20114;-80
2022/09/08 00:59:50;;;;;;;10.80;3.50;;;;;;;17.40;96.16;100788.97;5111395;28;20027;-76
2022/09/08 01:02:24;;;;;;;11.50;4.28;;;;;;;17.30;97.36;100777.59;5110382;28;20502;-78
2022/09/08 01:04:59;;;;;;;13.02;4.22;;;;;;;17.33;99.46;100777.28;5101755;28;20035;-82
2022/09/08 01:13:20;;;;;;;9.65;3.50;;;;;;;17.19;98.51;100770.72;5110985;28;20047;-77
2022/09/08 01:15:45;;;;;;;10.07;3.50;;;;;;;17.16;99.63;100773.69;5110136;28;20049;-82
2022/09/08 01:18:12;;;;;;;12.27;4.20;;;;;;;17.20;100.00;100764.41;5105828;28;20016;-82
2022/09/08 01:20:51;;;;;;;8.60;3.65;;;;;;;17.18;100.00;100753.09;5102349;28;20032;-82
2022/09/08 01:23:46;;;;;;;11.90;4.28;;;;;;;17.20;100.00;100752.94;5107531;28;20058;-83
2022/09/08 01:26:19;;;;;;;12.52;3.60;;;;;;;17.11;100.00;100735.28;5064554;28;20048;-82
2022/09/08 01:28:47;;;;;;;;;;;;;;;17.28;96.92;100733.56;5096951;28;20026;-82
2022/09/08 01:31:14;;;;;;;9.18;3.63;;;;;;;17.07;100.00;100725.97;5106854;28;20010;-83
2022/09/08 01:33:40;;;;;;;10.25;3.50;;;;;;;17.03;100.00;100717.47;5109246;28;20020;-82
2022/09/08 01:36:11;;;;;;;8.25;3.47;;;;;;;16.97;100.00;100733.22;5104739;28;20034;-81
2022/09/08 01:38:37;;;;;;;6.35;3.20;;;;;;;17.03;100.00;100743.22;5107949;28;20086;-82
2022/09/08 01:41:02;;;;;;;11.02;3.97;;;;;;;16.98;100.00;100746.34;5108253;28;20487;-82
2022/09/08 01:43:27;;;;;;;9.18;3.40;;;;;;;16.91;100.00;100734.69;5109178;28;20044;-82
2022/09/08 01:45:55;;;;;;;8.43;3.47;;;;;;;16.87;100.00;100741.31;5108073;28;20127;-82
2022/09/08 01:48:24;;;;;;;9.30;3.28;;;;;;;16.95;100.00;100740.53;5109255;28;20027;-82
2022/09/08 01:50:50;;;;;;;8.68;3.25;;;;;;;16.94;100.00;100733.53;5110071;28;20115;-81
2022/09/08 01:53:16;;;;;;;8.45;3.42;;;;;;;16.96;100.00;100731.56;5109343;28;20068;-78
2022/09/08 01:55:43;;;;;;;6.78;3.25;;;;;;;16.98;100.00;100730.41;5101172;28;20484;-77
2022/09/08 01:58:08;;;;;;;7.05;3.13;;;;;;;17.00;100.00;100728.41;5106095;28;20067;-82
2022/09/08 02:00:34;;;;;;;7.38;3.30;;;;;;;16.97;100.00;100727.91;5109626;28;20491;-83
2022/09/08 02:02:59;;;;;;;8.90;3.55;;;;;;;17.03;100.00;100709.50;5107954;28;20023;-82
2022/09/08 02:05:24;;;;;;;9.77;3.00;;;;;;;16.99;100.00;100710.81;5110301;28;20046;-82
2022/09/08 02:07:50;;;;;;;8.77;3.45;;;;;;;17.01;100.00;100708.00;5107878;28;20038;-82
2022/09/08 02:10:15;;;;;;;8.55;3.28;;;;;;;17.00;100.00;100690.38;5109386;28;20027;-82
2022/09/08 02:12:40;;;;;;;7.22;2.83;;;;;;;16.97;100.00;100691.53;5096156;28;20243;-82
2022/09/08 02:15:07;;;;;;;5.45;3.10;;;;;;;16.91;100.00;100685.03;5104883;28;20096;-82
2022/09/08 02:17:32;;;;;;;6.05;2.60;;;;;;;16.86;100.00;100684.66;5106690;28;20024;-82
2022/09/08 02:19:57;;;;;;;6.70;3.20;;;;;;;16.87;100.00;100696.97;5107842;28;20494;-82
2022/09/08 02:22:23;;;;;;;6.45;3.20;;;;;;;16.88;100.00;100688.00;5103363;28;20032;-81
2022/09/08 02:24:48;;;;;;;7.05;3.03;;;;;;;16.95;100.00;100687.38;5109176;28;20062;-82
2022/09/08 02:27:14;;;;;;;8.57;3.80;;;;;;;16.86;100.00;100689.16;5102428;28;20028;-82
2022/09/08 02:29:39;;;;;;;7.75;3.40;;;;;;;16.84;100.00;100696.44;5105704;28;20046;-77
2022/09/08 02:32:04;;;;;;;7.88;3.72;;;;;;;16.77;100.00;100695.38;5108105;28;20364;-79
2022/09/08 02:34:30;;;;;;;11.52;3.92;;;;;;;16.63;100.00;100686.16;5106618;28;20032;-79
2022/09/08 02:36:56;;;;;;;10.77;3.60;;;;;;;16.65;100.00;100680.69;5108479;28;20031;-82
2022/09/08 02:39:21;;;;;;;8.55;3.72;;;;;;;16.64;100.00;100679.84;5083818;28;20020;-82
2022/09/08 02:41:47;;;;;;;9.48;3.53;;;;;;;16.70;100.00;100679.25;5106535;28;20059;-82
2022/09/08 02:44:13;;;;;;;8.88;3.33;;;;;;;16.69;100.00;100692.69;5101644;28;20048;-82
2022/09/08 02:46:39;;;;;;;7.72;3.30;;;;;;;16.59;100.00;100682.97;5100970;28;20032;-84
2022/09/08 02:49:05;;;;;;;6.82;3.13;;;;;;;16.52;100.00;100687.25;5106843;28;20027;-83
2022/09/08 02:51:32;;;;;;;10.20;3.70;;;;;;;16.43;100.00;100682.88;5107025;28;20041;-82
2022/09/08 02:53:57;;;;;;;7.57;3.70;;;;;;;16.46;100.00;100684.38;5106578;28;20152;-82
2022/09/08 02:56:23;;;;;;;9.18;3.85;;;;;;;16.44;100.00;100681.06;5107544;28;20114;-82
2022/09/08 02:58:49;;;;;;;9.38;3.90;;;;;;;16.43;100.00;100682.03;5108998;28;20058;-82
2022/09/08 03:01:14;;;;;;;11.32;3.70;;;;;;;16.42;100.00;100683.88;5101143;28;20086;-82
2022/09/08 03:03:39;;;;;;;8.25;3.13;;;;;;;16.43;100.00;100687.34;5106584;28;20470;-83
2022/09/08 03:06:05;;;;;;;10.93;3.63;;;;;;;16.40;100.00;100677.00;5107575;28;20040;-82
2022/09/08 03:08:31;;;;;;;7.38;3.67;;;;;;;16.41;100.00;100681.34;5109531;28;20031;-82
2022/09/08 03:10:57;;;;;;;9.07;3.67;;;;;;;16.39;100.00;100681.50;5108030;28;20068;-82
2022/09/08 03:13:22;;;;;;;8.80;3.78;;;;;;;16.35;100.00;100680.13;5109660;28;20058;-82
2022/09/08 03:15:49;;;;;;;8.48;3.80;;;;;;;16.33;100.00;100687.44;5109784;28;20095;-82
2022/09/08 03:18:14;;;;;;;7.43;3.47;;;;;;;16.37;100.00;100687.94;5100007;28;20027;-82
2022/09/08 03:20:41;;;;;;;9.40;4.00;;;;;;;16.24;100.00;100675.91;5113391;28;20471;-81
2022/09/08 03:23:08;;;;;;;8.13;3.95;;;;;;;16.27;100.00;100686.22;5100596;28;20024;-81
2022/09/08 03:25:36;;;;;;;8.30;4.03;;;;;;;16.21;100.00;100683.34;5110337;28;20035;-81
2022/09/08 03:28:03;;;;;;;8.27;4.13;;;;;;;16.21;100.00;100678.88;5111305;28;20035;-81
2022/09/08 03:30:28;;;;;;;7.00;4.00;;;;;;;16.23;100.00;100692.84;5110776;28;20110;-82
2022/09/08 03:32:54;;;;;;;9.85;3.92;;;;;;;16.20;100.00;100693.13;5109929;28;20016;-82
2022/09/08 03:35:19;;;;;;;10.02;4.20;;;;;;;16.22;100.00;100706.25;5103808;28;20426;-83
2022/09/08 03:37:45;;;;;;;8.23;4.30;;;;;;;16.16;100.00;100717.50;5111223;28;20023;-83
2022/09/08 03:40:14;;;;;;;8.52;3.58;;;;;;;16.15;100.00;100732.59;5110923;27;20433;-83
2022/09/08 03:42:41;;;;;;;7.47;4.03;;;;;;;16.13;100.00;100736.38;5111439;27;20035;-84
2022/09/08 03:45:10;;;;;;;8.77;3.95;;;;;;;16.10;100.00;100750.78;5109957;28;20035;-84
2022/09/08 03:47:37;;;;;;;8.27;4.28;;;;;;;16.07;100.00;100716.59;5111787;28;20028;-82
2022/09/08 03:50:03;;;;;;;11.82;4.80;;;;;;;16.06;100.00;100696.34;5109995;28;20028;-83
2022/09/08 03:52:28;;;;;;;13.82;4.88;;;;;;;16.08;100.00;100689.06;5102296;28;20084;-83
2022/09/08 03:54:54;;;;;;;8.60;3.90;;;;;;;16.02;100.00;100681.72;5109074;28;20020;-84
2022/09/08 03:57:25;;;;;;;9.02;3.70;;;;;;;15.99;100.00;100690.78;5105976;28;20047;-83
2022/09/08 03:59:53;;;;;;;12.30;4.20;;;;;;;15.99;100.00;100685.47;5110904;28;20032;-84
2022/09/08 04:02:21;;;;;;;8.52;4.30;;;;;;;15.89;100.00;100679.44;5110834;28;20437;-84
2022/09/08 04:04:51;;;;;;;9.32;4.35;;;;;;;15.88;100.00;100682.22;5111094;27;20042;-84
2022/09/08 04:07:19;;;;;;;9.45;4.38;;;;;;;15.82;100.00;100677.53;5111174;28;20031;-84
2022/09/08 04:09:44;;;;;;;11.70;4.90;;;;;;;15.77;100.00;100679.81;5105890;28;20019;-84
2022/09/08 04:12:11;;;;;;;8.52;4.60;;;;;;;15.81;100.00;100678.53;5111514;28;20088;-84
2022/09/08 04:14:37;;;;;;;12.30;5.15;;;;;;;15.82;100.00;100677.53;5111754;28;20050;-83
2022/09/08 04:17:03;;;;;;;9.20;4.82;;;;;;;15.77;100.00;100680.66;5111887;28;20031;-77
2022/09/08 04:19:28;;;;;;;9.63;5.03;;;;;;;15.74;100.00;100680.13;5111960;28;20023;-77
2022/09/08 04:21:53;;;;;;;9.63;4.57;;;;;;;15.69;100.00;100680.56;5111942;28;20110;-77
2022/09/08 04:24:19;;;;;;;8.15;4.32;;;;;;;15.68;100.00;100680.72;5112400;28;20059;-77
2022/09/08 04:26:46;;;;;;;8.77;4.45;;;;;;;15.64;100.00;100678.38;5104131;28;20031;-76
2022/09/08 04:29:11;;;;;;;12.02;4.47;;;;;;;15.61;100.00;100681.31;5109530;28;20124;-76
2022/09/08 04:31:37;;;;;;;9.98;4.90;;;;;;;15.68;100.00;100688.69;5110482;28;20032;-76
2022/09/08 04:34:03;;;;;;;12.20;5.15;;;;;;;15.64;100.00;100688.97;5101512;28;20079;-76
2022/09/08 04:36:30;;;;;;;8.75;4.75;;;;;;;15.60;100.00;100694.72;5110753;28;20062;-77
2022/09/08 04:38:59;;;;;;;9.25;4.28;;;;;;;15.59;100.00;100693.03;5111639;28;20023;-76
2022/09/08 04:41:27;;;;;;;10.88;5.40;;;;;;;15.59;100.00;100687.72;5092508;28;20491;-76
2022/09/08 04:43:54;;;;;;;10.98;5.05;;;;;;;15.61;100.00;100702.53;5094790;28;20051;-76
2022/09/08 04:46:20;;;;;;;9.80;5.30;;;;;;;15.64;100.00;100698.75;5092909;28;20020;-76
2022/09/08 04:48:46;;;;;;;11.20;5.38;;;;;;;15.65;100.00;100687.16;5109316;28;20032;-76
2022/09/08 04:51:15;;;;;;;8.85;5.22;;;;;;;15.67;100.00;100703.75;5107937;28;20079;-76
2022/09/08 04:53:41;;;;;;;12.93;5.90;;;;;;;15.70;100.00;100702.63;5110203;28;20028;-76
2022/09/08 04:56:08;;;;;;;12.80;5.80;;;;;;;15.66;100.00;100700.28;5108512;28;20038;-76
2022/09/08 04:58:36;;;;;;;12.45;5.65;;;;;;;15.72;100.00;100708.63;5109857;28;20531;-76
2022/09/08 05:01:13;;;;;;;12.55;5.88;;;;;;;15.72;100.00;100706.78;5105279;28;20108;-76
2022/09/08 05:03:39;;;;;;;10.20;5.57;;;;;;;15.72;100.00;100703.31;5113348;28;20133;-76
2022/09/08 05:06:05;;;;;;;11.18;5.50;;;;;;;15.75;100.00;100703.00;5114824;28;20058;-76
2022/09/08 05:08:31;;;;;;;12.43;5.28;;;;;;;15.73;100.00;100705.81;5115512;28;20465;-77
2022/09/08 05:10:57;;;;;;;9.55;5.80;;;;;;;15.78;100.00;100710.66;5122256;28;20031;-76
2022/09/08 05:13:23;;;;;;;9.30;5.57;;;;;;;15.78;100.00;100705.34;5118945;28;20023;-77
2022/09/08 05:15:48;;;;;;;11.27;6.10;;;;;;;15.81;100.00;100702.41;5120295;28;20079;-76
2022/09/08 05:18:13;;;;;;;10.27;5.70;;;;;;;15.84;100.00;100712.72;5115912;28;20028;-75
2022/09/08 05:20:38;;;;;;;12.20;5.90;;;;;;;15.80;100.00;100711.34;5126609;28;20039;-83
2022/09/08 05:23:05;;;;;;;12.30;6.22;;;;;;;15.81;100.00;100713.84;5133737;28;20023;-85
2022/09/08 05:25:30;;;;;;;14.15;6.30;;;;;;;15.82;100.00;100709.38;5131561;28;20043;-76
2022/09/08 05:27:55;;;;;;;12.57;6.53;;;;;;;15.82;100.00;100714.69;5116220;28;20032;-77
2022/09/08 05:30:21;;;;;;;10.38;5.95;;;;;;;15.82;100.00;100710.22;5122620;28;20086;-76
2022/09/08 05:32:46;;;;;;;11.20;6.65;;;;;;;15.81;100.00;100707.72;5122658;28;20057;-85
2022/09/08 05:35:11;;;;;;;11.85;6.85;;;;;;;15.84;100.00;100708.25;5118124;28;20027;-87
2022/09/08 05:37:37;;;;;;;12.98;6.60;;;;;;;15.80;100.00;100711.34;5116816;28;20030;-87
2022/09/08 05:40:03;;;;;;;12.77;6.70;;;;;;;15.79;100.00;100709.69;5118493;28;20031;-87
2022/09/08 05:42:28;;;;;;;10.73;6.60;;;;;;;15.79;100.00;100705.19;5120113;28;20051;-86
2022/09/08 05:44:53;;;;;;;14.02;7.35;;;;;;;15.76;100.00;100707.31;5119668;28;20022;-88
2022/09/08 05:47:19;;;;;;;10.30;6.90;;;;;;;15.77;100.00;100704.53;5133699;28;20020;-86
2022/09/08 05:49:45;;;;;;;11.95;6.88;;;;;;;15.78;100.00;100702.69;5135763;28;20035;-85
2022/09/08 05:52:14;;;;;;;14.65;7.40;;;;;;;15.79;100.00;100709.69;5124715;28;20028;-84
2022/09/08 05:54:39;;;;;;;13.88;7.78;;;;;;;15.78;100.00;100708.00;5126766;28;20023;-85
2022/09/08 05:57:05;;;;;;;11.60;7.57;;;;;;;15.78;100.00;100708.00;5111624;28;20023;-84
2022/09/08 05:59:30;;;;;;;10.88;7.13;;;;;;;15.77;100.00;100706.34;5104601;28;20527;-75
2022/09/08 06:01:56;;;;;;;11.95;7.85;;;;;;;15.77;100.00;100701.03;5109001;28;20084;-76
2022/09/08 06:04:21;;;;;;;10.50;7.05;;;;;;;15.78;100.00;100697.41;5115154;28;20062;-83
2022/09/08 06:06:47;;;;;;;10.68;7.18;;;;;;;15.82;100.00;100709.38;5116098;28;20019;-83
2022/09/08 06:09:15;;;;;;;14.13;8.27;;;;;;;15.79;100.00;100721.13;5097152;28;20036;-83
2022/09/08 06:11:55;;;;;;;12.30;7.85;;;;;;;15.84;100.00;100718.00;5113996;28;20468;-83
2022/09/08 06:14:21;;;;;;;15.32;8.60;;;;;;;15.82;100.00;100714.69;5117393;28;20098;-83
2022/09/08 06:16:46;;;;;;;11.55;8.27;;;;;;;15.81;100.00;100715.66;5117534;28;20040;-83
2022/09/08 06:19:12;;;;;;;11.63;8.25;;;;;;;15.81;100.00;100718.31;5119620;28;20086;-84
2022/09/08 06:21:37;;;;;;;15.40;8.23;;;;;;;15.80;100.00;100714.00;5122751;28;20024;-83
2022/09/08 06:24:05;;;;;;;9.50;8.07;;;;;;;15.81;100.00;100713.84;5120540;28;20035;-84
2022/09/08 06:26:42;;;;;;;11.82;8.32;;;;;;;15.85;100.00;100714.38;5119243;28;20825;-83
2022/09/08 06:29:29;;;;;;;11.75;8.63;;;;;;;15.88;100.00;100706.13;5115998;28;20418;-84
2022/09/08 06:32:00;;;;;;;11.25;8.45;;;;;;;15.91;100.00;100714.59;5117766;28;20024;-84
2022/09/08 06:34:51;;;;;;;11.27;8.55;;;;;;;15.93;100.00;100720.59;5111679;28;20124;-85
2022/09/08 06:37:27;;;;;;;13.50;9.23;;;;;;;15.97;100.00;100718.47;5110118;28;20028;-85
2022/09/08 06:40:02;;;;;;;14.93;9.15;;;;;;;15.97;100.00;100718.47;5112087;28;20387;-85
2022/09/08 06:42:38;;;;;;;12.35;8.88;;;;;;;15.99;100.00;100727.94;5108946;28;20526;-83
2022/09/08 06:45:13;;;;;;;12.95;9.50;;;;;;;16.01;100.00;100722.50;5109450;28;20036;-77
2022/09/08 06:47:44;;;;;;;14.13;9.57;;;;;;;16.02;100.00;100726.84;5104496;28;20026;-78
2022/09/08 06:50:14;;;;;;;13.40;9.85;;;;;;;16.04;100.00;100730.16;5108078;28;20020;-83
2022/09/08 06:52:51;;;;;;;14.13;10.13;;;;;;;16.05;100.00;100723.88;5108670;28;20020;-78
2022/09/08 06:55:37;;;;;;;13.85;9.57;;;;;;;16.09;100.00;100727.91;5110426;28;20031;-77
2022/09/08 06:58:20;;;;;;;13.07;9.02;;;;;;;16.11;100.00;100733.88;5110409;28;20012;-75
2022/09/08 07:00:53;;;;;;;;;;;;;;;16.22;100.00;100727.50;5111437;28;20027;-76
2022/09/08 07:03:40;;;;;;;16.13;10.95;;;;;;;16.19;100.00;100728.63;5110362;28;19919;-76
2022/09/08 07:06:08;;;;;;;18.05;10.85;;;;;;;16.16;100.00;100723.63;5109500;28;20027;-76
2022/09/08 07:09:08;;;;;;;16.73;11.18;;;;;;;16.23;100.00;100732.66;5110022;28;20036;-77
2022/09/08 07:12:01;;;;;;;13.70;11.10;;;;;;;16.23;100.00;100730.00;5110360;28;20043;-75
2022/09/08 07:14:35;;;;;;;;;;;;;;;16.30;100.00;100728.41;5109670;28;20035;-77
2022/09/08 07:17:09;;;;;;;15.90;11.23;;;;;;;16.30;100.00;100722.25;5107782;28;19912;-77
2022/09/08 07:19:40;;;;;;;15.50;11.00;;;;;;;16.31;100.00;100721.25;5098815;28;20024;-79
2022/09/08 07:22:15;;;;;;;16.40;11.45;;;;;;;16.33;100.00;100723.75;5110360;28;20028;-78
2022/09/08 07:24:42;;;;;;;14.77;10.73;;;;;;;16.35;100.00;100725.28;5111616;28;21098;-78
2022/09/08 07:27:12;;;;;;;14.80;11.15;;;;;;;16.37;100.00;100725.13;5112117;28;20705;-76
2022/09/08 07:29:45;;;;;;;15.68;11.45;;;;;;;16.40;100.00;100724.81;5112210;28;20031;-78
2022/09/08 07:32:32;;;;;;;17.42;12.05;;;;;;;16.49;100.00;100729.22;5113218;28;20030;-85
2022/09/08 07:35:12;;;;;;;15.68;12.05;;;;;;;16.65;100.00;100734.66;5113328;28;20028;-86
2022/09/08 07:37:49;;;;;;;17.10;11.68;;;;;;;16.85;100.00;100737.97;5111230;28;20061;-78
2022/09/08 07:40:19;;;;;;;17.88;12.23;;;;;;;17.01;100.00;100719.47;5112728;28;20160;-78
2022/09/08 07:42:55;;;;;;;15.38;12.45;;;;;;;17.17;100.00;100724.84;5112123;28;20039;-78
2022/09/08 07:45:26;;;;;;;17.45;11.25;;;;;;;17.21;100.00;100728.00;5110968;28;20376;-77
2022/09/08 07:47:54;;;;;;;13.95;11.02;;;;;;;17.31;100.00;100719.94;5112016;28;20019;-79
2022/09/08 07:53:46;;;;;;;12.15;9.98;;;;;;;17.32;100.00;100724.25;5111946;28;20076;-78
2022/09/08 07:56:30;;;;;;;15.10;9.98;;;;;;;17.53;100.00;100738.78;5109415;28;20028;-77
2022/09/08 07:59:08;;;;;;;12.85;10.25;;;;;;;17.55;100.00;100734.13;5110511;28;20036;-78
2022/09/08 08:01:41;;;;;;;13.32;9.65;;;;;;;17.60;100.00;100735.47;5110537;28;20023;-78
2022/09/08 08:04:23;;;;;;;11.10;8.35;;;;;;;17.52;96.77;100737.13;5111215;28;20125;-78
2022/09/08 08:06:54;;;;;;;9.77;7.95;;;;;;;17.61;97.55;100747.78;5109401;28;20019;-78
2022/09/08 08:09:31;;;;;;;9.82;7.78;;;;;;;17.69;97.09;100750.53;5110933;28;20055;-78
2022/09/08 08:12:12;;;;;;;8.82;7.40;;;;;;;17.63;95.78;100744.00;5109353;28;20024;-78
2022/09/08 08:14:54;;;;;;;9.93;8.02;;;;;;;17.72;97.42;100740.41;5111500;28;20100;-78
2022/09/08 08:17:47;;;;;;;11.05;8.70;;;;;;;18.01;99.08;100739.09;5110867;28;20023;-78
2022/09/08 08:20:19;;;;;;;11.95;7.85;;;;;;;18.16;93.99;100745.47;5110088;28;20483;-78
2022/09/08 08:23:06;;;;;;;8.27;7.28;;;;;;;18.39;94.54;100745.63;5104268;28;20036;-78
2022/09/08 08:25:54;;;;;;;11.02;6.82;;;;;;;18.75;93.18;100744.31;5090555;28;20024;-78
2022/09/08 08:28:20;;;;;;;8.40;6.47;;;;;;;18.87;90.47;100741.31;5090384;28;20506;-79
2022/09/08 08:30:58;;;;;;;9.77;5.88;;;;;;;18.81;88.20;100741.97;5106755;28;20040;-78
2022/09/08 08:33:33;;;;;;;8.98;5.97;;;;;;;18.67;88.20;100747.00;5089987;28;20049;-79
2022/09/08 08:36:07;;;;;;;7.05;5.57;;;;;;;18.43;87.83;100745.16;5109186;28;20051;-78
2022/09/08 08:38:37;;;;;;;9.05;5.05;;;;;;;18.45;88.43;100743.16;5110455;28;20069;-79
2022/09/08 08:41:28;;;;;;;8.40;4.80;;;;;;;18.45;88.50;100747.66;5104597;28;20558;-79
2022/09/08 08:44:08;;;;;;;5.63;4.50;;;;;;;18.27;86.95;100746.97;5090736;28;20059;-79
2022/09/08 08:46:54;;;;;;;6.63;4.65;;;;;;;18.25;88.80;100738.31;5111169;28;20043;-79
2022/09/08 08:49:42;;;;;;;8.23;4.50;;;;;;;18.39;88.52;100743.78;5110110;28;20387;-77
2022/09/08 08:52:22;;;;;;;6.22;4.32;;;;;;;18.46;87.95;100746.66;5111533;28;20471;-78
2022/09/08 08:55:21;;;;;;;7.28;4.55;;;;;;;18.51;89.71;100752.31;5111265;28;20023;-77
2022/09/08 08:58:00;;;;;;;7.50;4.20;;;;;;;18.86;88.40;100744.97;5093813;28;20119;-77
2022/09/08 09:01:04;;;;;;;7.82;3.63;;;;;;;18.82;87.85;100739.16;5090570;28;20132;-79
2022/09/08 09:04:08;;;;;;;9.45;3.60;;;;;;;18.96;87.17;100745.63;5074080;28;20249;-77
2022/09/08 09:06:53;;;;;;;6.57;2.75;;;;;;;19.33;85.74;100727.16;5089580;28;20020;-78
2022/09/08 09:09:39;;;;;;;6.93;2.40;;;;;;;19.48;82.90;100734.44;5095402;28;20043;-77
2022/09/08 09:12:14;;;;;;;6.30;2.20;;;;;;;19.56;82.18;100737.09;5108905;28;20076;-78
2022/09/08 09:15:06;;;;;;;10.23;2.80;;;;;;;19.66;81.74;100735.06;5098599;28;20548;-77
2022/09/08 09:18:09;;;;;;;3.90;2.03;;;;;;;19.83;81.03;100733.94;5108861;28;20020;-78
2022/09/08 09:20:39;;;;;;;5.57;2.17;;;;;;;19.92;78.63;100735.53;5109725;28;20106;-78
2022/09/08 09:23:42;;;;;;;6.28;2.05;;;;;;;20.03;76.78;100740.50;5109012;28;20031;-79
2022/09/08 09:26:25;;;;;;;7.63;1.63;;;;;;;20.03;74.71;100728.97;5095006;28;20028;-76
2022/09/08 09:28:54;;;;;;;5.50;1.80;;;;;;;19.98;74.80;100737.50;5100977;28;20058;-77
2022/09/08 09:31:31;;;;;;;6.25;1.60;;;;;;;19.94;74.45;100733.53;5100013;28;20122;-78
2022/09/08 09:34:33;;;;;;;5.18;1.73;;;;;;;20.01;76.33;100737.19;5107311;28;20023;-75
2022/09/08 09:37:17;;;;;;;4.45;1.67;;;;;;;20.03;75.30;100737.00;5103248;28;20103;-76
2022/09/08 09:40:11;;;;;;;5.10;1.50;;;;;;;19.96;75.95;100733.34;5109084;28;20032;-76
2022/09/08 09:42:46;;;;;;;5.70;1.90;;;;;;;20.10;76.40;100732.59;5100541;28;20029;-76
2022/09/08 09:45:24;;;;;;;7.90;2.22;;;;;;;20.35;75.42;100730.56;5105060;28;20494;-76
2022/09/08 09:47:58;;;;;;;5.90;1.50;;;;;;;20.53;74.50;100732.94;5104868;28;20032;-81
2022/09/08 09:50:41;;;;;;;6.88;2.17;;;;;;;20.69;72.39;100738.13;5109063;27;20080;-87
2022/09/08 09:53:10;;;;;;;7.55;1.90;;;;;;;20.69;71.84;100731.97;5106865;28;20049;-86
2022/09/08 09:55:54;;;;;;;5.80;2.00;;;;;;;20.76;71.16;100725.69;5110561;28;20368;-86
2022/09/08 09:58:29;;;;;;;5.53;1.88;;;;;;;20.85;73.47;100731.81;5098367;28;20050;-78
2022/09/08 10:00:57;;;;;;;5.90;1.80;;;;;;;20.65;71.90;100737.66;5109686;28;20073;-78
2022/09/08 10:04:00;;;;;;;7.20;1.90;;;;;;;20.58;72.09;100738.59;5109459;28;20035;-77
2022/09/08 10:06:53;;;;;;;7.25;2.13;;;;;;;20.46;70.41;100751.56;5107726;28;20038;-80
2022/09/08 10:10:07;;;;;;;9.55;2.05;;;;;;;20.47;71.30;100747.88;5107067;28;20405;-79
2022/09/08 10:12:57;;;;;;;9.15;1.98;;;;;;;20.46;71.82;100746.22;5105765;28;20063;-78
2022/09/08 10:15:56;;;;;;;5.63;1.95;;;;;;;20.54;71.71;100746.13;5104765;28;20028;-80
2022/09/08 10:18:59;;;;;;;5.97;1.50;;;;;;;20.73;71.88;100738.59;5101934;28;20106;-79
2022/09/08 10:21:42;;;;;;;4.90;1.80;;;;;;;20.52;70.82;100745.50;5102564;28;20034;-80
2022/09/08 10:24:30;;;;;;;7.22;1.80;;;;;;;20.37;71.54;100746.41;5107587;28;20027;-80
2022/09/08 10:27:32;;;;;;;5.70;1.40;;;;;;;20.31;72.84;100742.63;5107577;28;20027;-79
2022/09/08 10:30:39;;;;;;;7.35;1.73;;;;;;;20.17;71.11;100752.25;5109455;28;20024;-80
2022/09/08 10:33:27;;;;;;;10.00;2.20;;;;;;;20.06;71.65;100749.16;5076987;28;20039;-80
2022/09/08 10:36:01;;;;;;;6.75;1.90;;;;;;;20.47;71.60;100752.38;5109283;28;20119;-80
2022/09/08 10:38:54;;;;;;;5.90;1.90;;;;;;;20.56;69.69;100744.13;5108048;28;20028;-80
2022/09/08 10:41:38;;;;;;;8.23;1.80;;;;;;;20.63;70.43;100747.72;5097587;28;20375;-80
2022/09/08 10:44:39;;;;;;;8.73;2.00;;;;;;;20.57;70.04;100735.06;5109282;28;20126;-80
2022/09/08 10:47:29;;;;;;;4.75;1.70;;;;;;;20.52;69.77;100734.78;5120719;28;20114;-80
2022/09/08 10:50:09;;;;;;;9.13;2.28;;;;;;;20.42;69.93;100731.56;5096665;28;20028;-80
2022/09/08 10:53:06;;;;;;;7.65;1.98;;;;;;;20.42;70.83;100736.91;5109579;28;20015;-80
2022/09/08 10:55:44;;;;;;;6.28;2.00;;;;;;;20.21;70.65;100742.84;5095481;28;20123;-80
2022/09/08 10:58:12;;;;;;;4.63;1.73;;;;;;;20.02;71.69;100738.00;5108988;28;20106;-80
2022/09/08 11:01:08;;;;;;;7.25;1.67;;;;;;;20.22;73.00;100733.84;5109144;28;20027;-80
2022/09/08 11:03:50;;;;;;;7.82;1.80;;;;;;;20.45;71.23;100738.38;5098924;28;20027;-80
2022/09/08 11:06:44;;;;;;;7.80;2.03;;;;;;;20.59;69.89;100729.56;5108827;28;20027;-80
2022/09/08 11:09:36;;;;;;;7.68;2.35;;;;;;;20.59;68.98;100727.72;5066290;28;20048;-80
2022/09/08 11:12:16;;;;;;;5.87;1.93;;;;;;;20.58;68.43;100723.38;5093146;28;20024;-80
2022/09/08 11:14:57;;;;;;;7.03;1.77;;;;;;;20.68;68.12;100727.63;5105797;28;20030;-79
2022/09/08 11:17:25;;;;;;;6.72;1.90;;;;;;;21.05;67.11;100719.53;5108583;28;20027;-79
2022/09/08 11:20:10;;;;;;;8.30;1.80;;;;;;;20.93;67.17;100726.38;5107883;28;20106;-79
2022/09/08 11:23:12;;;;;;;7.70;1.65;;;;;;;20.85;67.47;100721.13;5090266;28;20039;-80
2022/09/08 11:25:50;;;;;;;6.55;1.80;;;;;;;20.63;65.45;100718.31;5107586;28;20012;-78
2022/09/08 11:28:41;;;;;;;8.63;2.38;;;;;;;20.42;66.53;100722.69;5102542;28;20028;-78
2022/09/08 11:31:44;;;;;;;7.88;1.63;;;;;;;20.29;67.01;100720.59;5096344;28;20038;-78
2022/09/08 11:34:26;;;;;;;5.45;1.70;;;;;;;20.43;68.20;100714.50;5107703;28;20023;-77
2022/09/08 11:36:57;;;;;;;4.57;1.52;;;;;;;20.80;66.88;100710.09;5107726;28;20062;-78
2022/09/08 11:39:46;;;;;;;8.70;2.10;;;;;;;20.83;64.83;100702.56;5093060;28;20047;-79
2022/09/08 11:42:30;;;;;;;6.85;1.70;;;;;;;20.73;63.29;100698.50;5111332;28;20077;-78
2022/09/08 11:45:14;;;;;;;7.30;2.20;;;;;;;20.71;64.04;100712.03;5110837;28;20036;-78
2022/09/08 11:47:54;;;;;;;6.65;1.65;;;;;;;20.99;63.73;100698.88;5100010;28;20015;-78
2022/09/08 11:50:34;;;;;;;5.38;1.80;;;;;;;21.38;62.10;100705.81;5102538;28;20027;-78
2022/09/08 11:53:24;;;;;;;4.45;1.67;;;;;;;21.68;62.10;100698.53;5112507;28;20034;-78
2022/09/08 11:56:13;;;;;;;5.47;1.50;;;;;;;21.85;63.13;100689.22;5112748;28;20050;-78